So Ute Indian Res, Colorado
Current Conditions -  °F | °C
As of 7:53 AM on Monday 22 Dec 2014 (Local Time) from KDRO Reporting Station
Broken Clouds Broken Clouds  
Wind Chill: 28°   Ceiling: 11000
Heat Index: 39°   Visibility: 10mi
Dew Point: 29°   Wind: 24mph
Humidity: 67%   Direction: 260°W
Pressure: 29.84"   Gusts: 35mph
Location:  37.0891°N, 107.649°W
Report Text: KDRO 221453Z AUTO 26021G30KT 10SM FEW080 BKN110 04/M02 A2984 RMK AO2 PK WND 29031/1409 SLP098 T00391017 58004
Loading
Personal Weather Stations






























Interactive Weather Map New forecast layout! Learn more

10-Day Weather Forecast

Advertisements
Track Severe Weather on mobile